createdAt,value
2022-11-29T00:01:39.956Z,101363.25
2022-11-29T00:04:07.303Z,101364.88
2022-11-29T00:06:35.950Z,101354.84
2022-11-29T00:09:07.138Z,101362.59
2022-11-29T00:11:55.259Z,101357.81
2022-11-29T00:14:25.715Z,101351.53
2022-11-29T00:16:56.196Z,101363.06
2022-11-29T00:19:23.188Z,101365.03
2022-11-29T00:21:50.208Z,101370.47
2022-11-29T00:24:17.794Z,101367.53
2022-11-29T00:26:44.810Z,101365.88
2022-11-29T00:29:12.794Z,101366.22
2022-11-29T00:31:41.325Z,101370.66
2022-11-29T00:34:11.406Z,101365.56
2022-11-29T00:36:38.514Z,101366.88
2022-11-29T00:39:05.886Z,101368.50
2022-11-29T00:41:33.574Z,101371.13
2022-11-29T00:44:00.862Z,101375.75
2022-11-29T00:46:28.998Z,101374.59
2022-11-29T00:48:57.289Z,101371.78
2022-11-29T00:51:24.290Z,101370.16
2022-11-29T00:53:51.410Z,101374.44
2022-11-29T00:56:18.475Z,101371.47
2022-11-29T00:58:45.500Z,101364.03
2022-11-29T01:01:12.626Z,101369.94
2022-11-29T01:03:40.010Z,101369.47
2022-11-29T01:06:11.893Z,101370.25
2022-11-29T01:08:39.525Z,101370.09
2022-11-29T01:11:12.789Z,101371.44
2022-11-29T01:13:41.272Z,101371.75
2022-11-29T01:16:09.678Z,101369.13
2022-11-29T01:18:37.819Z,101367.16
2022-11-29T01:21:09.959Z,101375.22
2022-11-29T01:23:38.416Z,101369.47
2022-11-29T01:26:09.115Z,101373.44
2022-11-29T01:28:37.590Z,101380.34
2022-11-29T01:31:09.063Z,101381.03
2022-11-29T01:33:37.196Z,101383.00
2022-11-29T01:36:06.438Z,101392.69
2022-11-29T01:38:35.775Z,101396.16
2022-11-29T01:41:06.637Z,101392.22
2022-11-29T01:43:53.284Z,101396.84
2022-11-29T01:46:20.305Z,101388.59
2022-11-29T01:48:50.070Z,101394.38
2022-11-29T01:51:17.325Z,101399.47
2022-11-29T01:53:46.121Z,101395.22
2022-11-29T01:56:16.195Z,101399.13
2022-11-29T01:58:45.271Z,101394.53
2022-11-29T02:01:14.268Z,101395.84
2022-11-29T02:03:41.582Z,101393.03
2022-11-29T02:06:08.966Z,101394.22
2022-11-29T02:08:40.476Z,101401.13
2022-11-29T02:11:50.030Z,101393.53
2022-11-29T02:14:39.947Z,101396.84
2022-11-29T02:17:20.844Z,101392.72
2022-11-29T02:20:25.764Z,101399.78
2022-11-29T02:23:07.422Z,101395.84
2022-11-29T02:26:03.002Z,101395.50
2022-11-29T02:29:17.874Z,101406.69
2022-11-29T02:32:32.007Z,101393.84
2022-11-29T02:35:24.086Z,101398.94
2022-11-29T02:38:23.988Z,101401.59
2022-11-29T02:41:22.239Z,101411.66
2022-11-29T02:44:31.106Z,101407.53
2022-11-29T02:47:15.436Z,101411.31
2022-11-29T02:50:09.713Z,101408.34
2022-11-29T02:52:49.607Z,101414.59
2022-11-29T02:55:24.589Z,101418.88
2022-11-29T02:58:01.346Z,101419.19
2022-11-29T03:00:28.932Z,101422.97
2022-11-29T03:03:05.863Z,101423.16
2022-11-29T03:05:48.415Z,101417.22
2022-11-29T03:08:32.986Z,101423.94
2022-11-29T03:11:12.710Z,101433.28
2022-11-29T03:13:55.650Z,101431.97
2022-11-29T03:16:42.588Z,101441.53
2022-11-29T03:19:34.988Z,101436.88
2022-11-29T03:22:11.953Z,101440.16
2022-11-29T03:24:54.505Z,101436.53
2022-11-29T03:27:30.713Z,101440.44
2022-11-29T03:30:04.454Z,101441.09
2022-11-29T03:32:48.487Z,101448.69
2022-11-29T03:35:25.344Z,101452.34
2022-11-29T03:38:03.920Z,101454.00
2022-11-29T03:40:49.181Z,101444.59
2022-11-29T03:43:24.708Z,101450.69
2022-11-29T03:46:00.759Z,101448.41
2022-11-29T03:48:35.122Z,101452.38
2022-11-29T03:51:11.151Z,101450.59
2022-11-29T03:53:48.235Z,101458.19
2022-11-29T03:56:31.534Z,101452.44
2022-11-29T03:59:14.142Z,101453.41
2022-11-29T04:02:34.106Z,101452.06
2022-11-29T04:05:47.544Z,101459.00
2022-11-29T04:09:16.371Z,101461.31
2022-11-29T04:12:14.277Z,101464.63
2022-11-29T04:15:16.188Z,101470.78
2022-11-29T04:18:35.196Z,101468.31
2022-11-29T04:21:33.789Z,101460.41
2022-11-29T04:24:55.527Z,101461.91
2022-11-29T04:27:41.531Z,101469.81
2022-11-29T04:30:18.720Z,101471.78
2022-11-29T04:33:48.891Z,101476.56
2022-11-29T04:36:46.377Z,101483.31
2022-11-29T04:39:47.120Z,101480.34
2022-11-29T04:43:00.857Z,101484.97
2022-11-29T04:46:20.718Z,101483.13
2022-11-29T04:49:10.857Z,101483.75
2022-11-29T04:52:10.504Z,101479.13
2022-11-29T04:54:47.798Z,101482.72
2022-11-29T04:57:32.713Z,101489.97
2022-11-29T05:00:09.838Z,101488.50
2022-11-29T05:02:51.057Z,101497.25
2022-11-29T05:05:33.685Z,101505.88
2022-11-29T05:08:23.451Z,101505.06
2022-11-29T05:11:03.717Z,101506.91
2022-11-29T05:13:45.096Z,101508.72
2022-11-29T05:16:32.563Z,101508.91
2022-11-29T05:19:34.112Z,101511.91
2022-11-29T05:22:24.342Z,101513.84
2022-11-29T05:25:02.416Z,101514.00
2022-11-29T05:27:46.350Z,101518.47
2022-11-29T05:30:18.182Z,101511.53
2022-11-29T05:32:58.212Z,101518.78
2022-11-29T05:35:53.130Z,101520.75
2022-11-29T05:38:43.723Z,101527.34
2022-11-29T05:41:32.185Z,101531.47
2022-11-29T05:44:11.180Z,101539.53
2022-11-29T05:46:52.305Z,101537.41
2022-11-29T05:49:34.912Z,101537.19
2022-11-29T05:52:21.717Z,101537.78
2022-11-29T05:55:09.942Z,101543.72
2022-11-29T05:57:46.935Z,101542.41
2022-11-29T06:00:17.795Z,101547.38
2022-11-29T06:02:58.225Z,101553.47
2022-11-29T06:05:37.212Z,101563.31
2022-11-29T06:08:13.085Z,101560.63
2022-11-29T06:10:56.609Z,101569.31
2022-11-29T06:13:42.481Z,101566.47
2022-11-29T06:16:40.815Z,101570.03
2022-11-29T06:19:49.431Z,101572.41
2022-11-29T06:22:59.792Z,101577.66
2022-11-29T06:25:50.016Z,101574.69
2022-11-29T06:28:44.193Z,101583.03
2022-11-29T06:31:21.064Z,101576.94
2022-11-29T06:33:59.164Z,101575.97
2022-11-29T06:36:33.693Z,101584.19
2022-11-29T06:39:02.911Z,101581.91
2022-11-29T06:41:30.867Z,101579.34
2022-11-29T06:43:58.665Z,101591.41
2022-11-29T06:46:45.320Z,101590.47
2022-11-29T06:49:21.717Z,101592.16
2022-11-29T06:52:05.623Z,101596.56
2022-11-29T06:54:54.421Z,101596.22
2022-11-29T06:57:29.767Z,101599.69
2022-11-29T07:00:09.083Z,101603.31
2022-11-29T07:02:57.828Z,101614.16
2022-11-29T07:05:29.952Z,101610.22
2022-11-29T07:08:03.246Z,101616.00
2022-11-29T07:10:37.282Z,101617.66
2022-11-29T07:13:05.151Z,101615.38
2022-11-29T07:15:33.123Z,101624.03
2022-11-29T07:18:17.269Z,101617.63
2022-11-29T07:21:04.114Z,101617.75
2022-11-29T07:23:38.315Z,101617.63
2022-11-29T07:26:21.884Z,101628.81
2022-11-29T07:29:04.349Z,101632.63
2022-11-29T07:31:54.630Z,101627.59
2022-11-29T07:34:34.450Z,101625.31
2022-11-29T07:37:15.392Z,101633.03
2022-11-29T07:39:56.702Z,101631.53
2022-11-29T07:42:41.721Z,101638.78
2022-11-29T07:45:22.358Z,101642.38
2022-11-29T07:47:50.132Z,101643.88
2022-11-29T07:50:17.392Z,101648.31
2022-11-29T07:52:44.522Z,101649.50
2022-11-29T07:55:18.523Z,101653.38
2022-11-29T07:57:48.027Z,101655.16
2022-11-29T08:00:17.319Z,101648.00
2022-11-29T08:02:45.762Z,101656.06
2022-11-29T08:05:12.860Z,101662.00
2022-11-29T08:07:41.793Z,101661.34
2022-11-29T08:10:12.516Z,101668.91
2022-11-29T08:12:44.050Z,101667.28
2022-11-29T08:15:13.280Z,101665.31
2022-11-29T08:17:40.315Z,101673.88
2022-11-29T08:20:10.761Z,101673.59
2022-11-29T08:22:38.215Z,101672.75
2022-11-29T08:25:07.610Z,101670.94
2022-11-29T08:27:36.908Z,101672.13
2022-11-29T08:30:04.891Z,101669.72
2022-11-29T08:32:35.614Z,101665.78
2022-11-29T08:35:02.709Z,101667.81
2022-11-29T08:37:29.683Z,101676.06
2022-11-29T08:39:58.187Z,101681.19
2022-11-29T08:42:25.374Z,101680.06
2022-11-29T08:44:52.384Z,101683.66
2022-11-29T08:47:37.759Z,101683.97
2022-11-29T08:50:12.236Z,101686.03
2022-11-29T08:53:00.919Z,101688.19
2022-11-29T08:55:34.627Z,101691.53
2022-11-29T08:58:04.994Z,101694.00
2022-11-29T09:00:33.348Z,101694.00
2022-11-29T09:03:20.890Z,101694.31
2022-11-29T09:05:49.348Z,101698.75
2022-11-29T09:08:16.433Z,101701.84
2022-11-29T09:10:43.744Z,101705.47
2022-11-29T09:13:12.318Z,101709.91
2022-11-29T09:15:40.184Z,101717.44
2022-11-29T09:18:07.467Z,101718.09
2022-11-29T09:20:35.343Z,101711.88
2022-11-29T09:23:04.176Z,101722.41
2022-11-29T09:25:31.226Z,101721.88
2022-11-29T09:28:01.788Z,101734.91
2022-11-29T09:30:31.269Z,101728.13
2022-11-29T09:32:59.875Z,101732.03
2022-11-29T09:35:28.148Z,101731.91
2022-11-29T09:37:55.099Z,101730.53
2022-11-29T09:40:33.712Z,101736.63
2022-11-29T09:43:13.946Z,101735.50
2022-11-29T09:45:46.759Z,101744.41
2022-11-29T09:48:49.832Z,101735.78
2022-11-29T09:51:28.075Z,101742.44
2022-11-29T09:54:17.867Z,101743.09
2022-11-29T09:56:50.931Z,101739.84
2022-11-29T09:59:24.733Z,101746.78
2022-11-29T10:02:00.171Z,101751.84
2022-11-29T10:04:36.239Z,101751.28
2022-11-29T10:07:21.551Z,101744.91
2022-11-29T10:09:56.859Z,101746.03
2022-11-29T10:12:37.712Z,101749.66
2022-11-29T10:15:13.961Z,101743.78
2022-11-29T10:17:49.385Z,101743.97
2022-11-29T10:20:22.485Z,101742.47
2022-11-29T10:22:57.729Z,101743.47
2022-11-29T10:25:33.094Z,101741.50
2022-11-29T10:28:15.707Z,101743.78
2022-11-29T10:30:43.954Z,101743.16
2022-11-29T10:33:20.774Z,101738.88
2022-11-29T10:35:51.158Z,101738.63
2022-11-29T10:38:33.980Z,101732.66
2022-11-29T10:41:09.308Z,101735.22
2022-11-29T10:43:38.697Z,101736.31
2022-11-29T10:46:14.384Z,101732.06
2022-11-29T10:48:41.759Z,101723.56
2022-11-29T10:51:17.953Z,101727.50
2022-11-29T10:53:46.717Z,101736.06
2022-11-29T10:56:23.960Z,101729.09
2022-11-29T10:59:03.040Z,101732.00
2022-11-29T11:01:35.579Z,101737.03
2022-11-29T11:04:04.262Z,101738.13
2022-11-29T11:06:46.426Z,101742.06
2022-11-29T11:09:22.287Z,101740.50
2022-11-29T11:11:56.322Z,101740.94
2022-11-29T11:14:28.417Z,101733.88
2022-11-29T11:16:55.885Z,101735.78
2022-11-29T11:19:28.676Z,101729.53
2022-11-29T11:21:57.898Z,101725.81
2022-11-29T11:24:29.040Z,101728.81
2022-11-29T11:27:00.309Z,101734.56
2022-11-29T11:29:37.259Z,101738.22
2022-11-29T11:32:15.370Z,101738.88
2022-11-29T11:34:52.120Z,101743.50
2022-11-29T11:37:24.009Z,101740.16
2022-11-29T11:39:54.074Z,101744.78
2022-11-29T11:42:37.642Z,101738.84
2022-11-29T11:45:27.265Z,101737.16
2022-11-29T11:47:57.681Z,101735.88
2022-11-29T11:50:30.459Z,101733.06
2022-11-29T11:53:02.064Z,101742.44
2022-11-29T11:55:37.124Z,101743.50
2022-11-29T11:58:16.247Z,101750.22
2022-11-29T12:01:05.716Z,101752.38
2022-11-29T12:03:48.136Z,101743.81
2022-11-29T12:06:42.989Z,101748.59
2022-11-29T12:09:22.988Z,101745.47
2022-11-29T12:12:01.309Z,101753.41
2022-11-29T12:14:40.423Z,101748.56
2022-11-29T12:17:20.611Z,101743.09
2022-11-29T12:20:07.550Z,101755.25
2022-11-29T12:22:48.093Z,101756.34
2022-11-29T12:25:24.847Z,101756.66
2022-11-29T12:27:52.185Z,101754.47
2022-11-29T12:30:19.989Z,101757.44
2022-11-29T12:33:22.796Z,101763.44
2022-11-29T12:36:08.670Z,101762.50
2022-11-29T12:38:59.569Z,101765.44
2022-11-29T12:41:43.425Z,101758.88
2022-11-29T12:44:27.576Z,101760.88
2022-11-29T12:47:34.655Z,101767.19
2022-11-29T12:50:15.453Z,101768.22
2022-11-29T12:52:56.875Z,101775.94
2022-11-29T12:55:31.938Z,101773.19
2022-11-29T12:58:05.412Z,101776.97
2022-11-29T13:00:43.670Z,101771.81
2022-11-29T13:03:24.856Z,101772.81
2022-11-29T13:06:09.363Z,101779.06
2022-11-29T13:09:26.910Z,101777.31
2022-11-29T13:12:02.235Z,101783.13
2022-11-29T13:14:43.072Z,101783.63
2022-11-29T13:17:33.936Z,101787.94
2022-11-29T13:20:19.676Z,101776.41
2022-11-29T13:22:58.916Z,101779.38
2022-11-29T13:25:30.517Z,101781.03
2022-11-29T13:28:03.048Z,101784.66
2022-11-29T13:30:30.457Z,101780.72
2022-11-29T13:33:05.792Z,101786.50
2022-11-29T13:35:41.468Z,101788.00
2022-11-29T13:38:19.886Z,101786.31
2022-11-29T13:40:58.190Z,101790.25
2022-11-29T13:43:34.998Z,101784.47
2022-11-29T13:46:18.819Z,101791.41
2022-11-29T13:48:54.054Z,101792.84
2022-11-29T13:51:29.596Z,101791.50
2022-11-29T13:54:02.133Z,101790.69
2022-11-29T13:56:42.762Z,101795.50
2022-11-29T13:59:19.503Z,101792.47
2022-11-29T14:01:51.143Z,101789.84
2022-11-29T14:04:34.540Z,101786.53
2022-11-29T14:07:11.190Z,101789.47
2022-11-29T14:10:01.255Z,101794.69
2022-11-29T14:12:39.790Z,101787.31
2022-11-29T14:15:22.671Z,101794.09
2022-11-29T14:17:56.803Z,101798.44
2022-11-29T14:20:58.153Z,101803.41
2022-11-29T14:23:35.905Z,101808.88
2022-11-29T14:26:31.540Z,101805.38
2022-11-29T14:28:59.496Z,101819.88
2022-11-29T14:31:53.250Z,101823.16
2022-11-29T14:34:42.210Z,101817.31
2022-11-29T14:37:33.789Z,101822.66
2022-11-29T14:40:20.627Z,101822.22
2022-11-29T14:42:50.109Z,101817.25
2022-11-29T14:45:29.011Z,101824.31
2022-11-29T14:47:58.326Z,101829.56
2022-11-29T14:50:36.855Z,101829.28
2022-11-29T14:53:06.081Z,101827.00
2022-11-29T14:55:36.529Z,101832.47
2022-11-29T14:58:20.776Z,101828.47
2022-11-29T15:01:10.888Z,101834.03
2022-11-29T15:03:49.790Z,101834.03
2022-11-29T15:06:30.171Z,101826.09
2022-11-29T15:09:05.688Z,101822.97
2022-11-29T15:11:51.553Z,101831.28
2022-11-29T15:14:34.713Z,101828.91
2022-11-29T15:17:23.425Z,101835.78
2022-11-29T15:20:20.440Z,101838.13
2022-11-29T15:22:54.724Z,101836.44
2022-11-29T15:25:26.353Z,101841.78
2022-11-29T15:27:55.687Z,101841.31
2022-11-29T15:30:36.642Z,101840.38
2022-11-29T15:33:06.937Z,101845.66
2022-11-29T15:39:37.719Z,101853.25
2022-11-29T15:42:11.887Z,101855.91
2022-11-29T15:44:45.541Z,101851.97
2022-11-29T15:47:22.692Z,101863.19
2022-11-29T15:49:50.223Z,101856.94
2022-11-29T15:52:27.099Z,101858.59
2022-11-29T15:54:59.962Z,101860.91
2022-11-29T15:57:34.903Z,101857.81
2022-11-29T16:00:05.858Z,101869.59
2022-11-29T16:02:39.799Z,101863.31
2022-11-29T16:05:17.646Z,101866.19
2022-11-29T16:07:47.917Z,101871.97
2022-11-29T16:10:20.621Z,101872.66
2022-11-29T16:12:53.701Z,101868.03
2022-11-29T16:15:32.942Z,101874.16
2022-11-29T16:18:11.021Z,101878.75
2022-11-29T16:20:38.509Z,101875.53
2022-11-29T16:23:12.057Z,101879.31
2022-11-29T16:25:58.444Z,101878.75
2022-11-29T16:28:31.699Z,101880.44
2022-11-29T16:30:59.955Z,101879.16
2022-11-29T16:33:28.771Z,101883.16
2022-11-29T16:36:06.007Z,101881.50
2022-11-29T16:38:33.501Z,101881.88
2022-11-29T16:41:06.839Z,101886.78
2022-11-29T16:43:53.501Z,101885.13
2022-11-29T16:46:32.391Z,101893.72
2022-11-29T16:49:24.368Z,101891.75
2022-11-29T16:51:53.723Z,101896.72
2022-11-29T16:54:25.999Z,101896.56
2022-11-29T16:56:58.738Z,101896.38
2022-11-29T16:59:28.416Z,101896.38
2022-11-29T17:01:56.732Z,101899.56
2022-11-29T17:04:29.139Z,101896.09
2022-11-29T17:06:56.615Z,101899.69
2022-11-29T17:09:26.449Z,101897.75
2022-11-29T17:11:54.328Z,101900.41
2022-11-29T17:14:21.629Z,101907.00
2022-11-29T17:16:49.578Z,101911.28
2022-11-29T17:19:17.570Z,101906.00
2022-11-29T17:21:47.500Z,101912.44
2022-11-29T17:24:19.139Z,101907.09
2022-11-29T17:26:46.425Z,101907.56
2022-11-29T17:29:16.625Z,101916.44
2022-11-29T17:31:45.079Z,101907.88
2022-11-29T17:34:12.758Z,101912.19
2022-11-29T17:36:41.210Z,101916.78
2022-11-29T17:39:09.784Z,101917.06
2022-11-29T17:41:37.523Z,101929.59
2022-11-29T17:44:05.126Z,101926.53
2022-11-29T17:46:34.721Z,101929.09
2022-11-29T17:49:04.455Z,101925.50
2022-11-29T17:54:23.171Z,101929.31
2022-11-29T17:56:54.855Z,101928.81
2022-11-29T17:59:21.811Z,101932.13
2022-11-29T18:01:48.881Z,101936.75
2022-11-29T18:04:16.005Z,101936.50
2022-11-29T18:06:49.831Z,101936.41
2022-11-29T18:09:19.969Z,101941.53
2022-11-29T18:11:49.925Z,101949.28
2022-11-29T18:14:20.532Z,101947.94
2022-11-29T18:16:47.677Z,101945.59
2022-11-29T18:19:17.900Z,101952.25
2022-11-29T18:21:45.302Z,101957.88
2022-11-29T18:24:12.682Z,101955.81
2022-11-29T18:26:41.883Z,101961.75
2022-11-29T18:29:09.623Z,101956.47
2022-11-29T18:31:39.695Z,101962.59
2022-11-29T18:34:11.472Z,101964.53
2022-11-29T18:36:42.769Z,101964.84
2022-11-29T18:39:13.839Z,101962.63
2022-11-29T18:41:44.376Z,101973.78
2022-11-29T18:44:14.838Z,101972.97
2022-11-29T18:46:44.136Z,101970.16
2022-11-29T18:49:14.481Z,101971.56
2022-11-29T18:51:44.514Z,101965.94
2022-11-29T18:54:12.607Z,101971.34
2022-11-29T18:56:40.050Z,101965.25
2022-11-29T18:59:11.296Z,101970.84
2022-11-29T19:01:42.265Z,101975.34
2022-11-29T19:04:13.916Z,101974.66
2022-11-29T19:06:41.650Z,101975.84
2022-11-29T19:09:13.711Z,101978.31
2022-11-29T19:11:40.833Z,101970.53
2022-11-29T19:14:12.588Z,101978.88
2022-11-29T19:16:42.026Z,101976.13
2022-11-29T19:19:09.856Z,101978.59
2022-11-29T19:21:37.696Z,101987.84
2022-11-29T19:24:13.127Z,101991.03
2022-11-29T19:26:42.816Z,101989.47
2022-11-29T19:29:12.433Z,101995.66
2022-11-29T19:31:39.546Z,101990.94
2022-11-29T19:34:06.925Z,102002.00
2022-11-29T19:36:34.177Z,101993.41
2022-11-29T19:39:03.129Z,101994.75
2022-11-29T19:41:32.595Z,101988.69
2022-11-29T19:44:03.345Z,101998.06
2022-11-29T19:46:35.106Z,101991.25
2022-11-29T19:49:04.273Z,101999.22
2022-11-29T19:51:32.282Z,101997.66
2022-11-29T19:54:01.924Z,101996.53
2022-11-29T19:56:31.145Z,102003.03
2022-11-29T19:59:01.405Z,102000.06
2022-11-29T20:01:39.748Z,102005.91
2022-11-29T20:04:09.629Z,102005.63
2022-11-29T20:06:36.892Z,102007.13
2022-11-29T20:09:04.376Z,102012.25
2022-11-29T20:11:31.362Z,102015.03
2022-11-29T20:14:02.029Z,102020.31
2022-11-29T20:16:31.406Z,102017.00
2022-11-29T20:18:59.375Z,102025.59
2022-11-29T20:21:29.895Z,102021.00
2022-11-29T20:23:58.662Z,102026.94
2022-11-29T20:26:27.815Z,102025.25
2022-11-29T20:28:55.267Z,102030.88
2022-11-29T20:31:23.478Z,102035.47
2022-11-29T20:33:54.527Z,102034.75
2022-11-29T20:36:39.476Z,102031.44
2022-11-29T20:39:21.079Z,102033.41
2022-11-29T20:42:12.600Z,102036.25
2022-11-29T20:44:53.909Z,102033.22
2022-11-29T20:47:24.539Z,102036.31
2022-11-29T20:49:53.627Z,102044.34
2022-11-29T20:52:36.205Z,102035.75
2022-11-29T20:55:03.442Z,102041.69
2022-11-29T20:57:30.425Z,102041.25
2022-11-29T20:59:57.376Z,102039.16
2022-11-29T21:02:24.726Z,102044.28
2022-11-29T21:04:52.978Z,102045.13
2022-11-29T21:07:19.973Z,102045.13
2022-11-29T21:09:46.937Z,102053.69
2022-11-29T21:12:15.753Z,102055.22
2022-11-29T21:14:44.202Z,102053.13
2022-11-29T21:17:12.203Z,102051.16
2022-11-29T21:19:39.981Z,102054.22
2022-11-29T21:22:16.815Z,102055.56
2022-11-29T21:25:02.272Z,102056.91
2022-11-29T21:27:33.099Z,102056.91
2022-11-29T21:30:05.587Z,102054.28
2022-11-29T21:32:34.022Z,102053.31
2022-11-29T21:35:00.963Z,102056.63
2022-11-29T21:37:31.056Z,102053.16
2022-11-29T21:39:57.967Z,102054.00
2022-11-29T21:42:25.141Z,102054.66
2022-11-29T21:44:53.198Z,102057.97
2022-11-29T21:47:20.233Z,102055.00
2022-11-29T21:49:47.323Z,102055.94
2022-11-29T21:52:20.701Z,102056.13
2022-11-29T21:54:50.721Z,102050.59
2022-11-29T21:57:17.702Z,102052.53
2022-11-29T21:59:44.699Z,102060.63
2022-11-29T22:02:11.843Z,102057.16
2022-11-29T22:04:38.884Z,102059.78
2022-11-29T22:07:05.947Z,102061.59
2022-11-29T22:09:32.912Z,102055.19
2022-11-29T22:12:14.618Z,102048.94
2022-11-29T22:14:48.223Z,102058.66
2022-11-29T22:17:15.334Z,102055.84
2022-11-29T22:19:42.511Z,102057.81
2022-11-29T22:22:10.761Z,102065.06
2022-11-29T22:24:38.072Z,102062.56
2022-11-29T22:27:06.516Z,102059.78
2022-11-29T22:29:33.505Z,102067.25
2022-11-29T22:32:01.094Z,102073.19
2022-11-29T22:34:28.148Z,102073.06
2022-11-29T22:36:55.834Z,102072.06
2022-11-29T22:39:23.019Z,102071.94
2022-11-29T22:41:54.323Z,102070.81
2022-11-29T22:44:24.099Z,102076.91
2022-11-29T22:46:51.394Z,102081.38
2022-11-29T22:49:18.410Z,102082.16
2022-11-29T22:51:45.404Z,102082.16
2022-11-29T22:54:15.296Z,102087.44
2022-11-29T22:56:44.288Z,102077.06
2022-11-29T22:59:11.498Z,102083.00
2022-11-29T23:01:41.661Z,102083.69
2022-11-29T23:04:10.696Z,102083.22
2022-11-29T23:06:41.322Z,102091.00
2022-11-29T23:09:11.888Z,102090.19
2022-11-29T23:11:39.225Z,102087.69
2022-11-29T23:14:06.235Z,102093.94
2022-11-29T23:16:33.491Z,102100.06
2022-11-29T23:19:02.426Z,102096.88
2022-11-29T23:21:32.073Z,102101.63
2022-11-29T23:24:02.980Z,102104.72
2022-11-29T23:26:36.168Z,102100.28
2022-11-29T23:29:03.823Z,102099.75
2022-11-29T23:31:31.631Z,102099.91
2022-11-29T23:33:58.938Z,102100.59
2022-11-29T23:36:27.250Z,102102.22
2022-11-29T23:38:54.206Z,102105.88
2022-11-29T23:41:21.212Z,102101.44
2022-11-29T23:43:48.236Z,102110.31
2022-11-29T23:46:17.398Z,102113.09
2022-11-29T23:48:45.663Z,102116.69
2022-11-29T23:51:13.812Z,102112.25
2022-11-29T23:53:42.763Z,102111.03
2022-11-29T23:56:13.025Z,102112.03
2022-11-29T23:58:41.380Z,102114.13
